sensor_id;sensor_type;location;lat;lon;timestamp;noise_LAeq;noise_LA_min;noise_LA_max;noise_LA01;noise_LA95
49568;Laerm;35474;51.032;6.998;2023-04-24T00:00:34;56.61;40.33;80.44;;
49568;Laerm;35474;51.032;6.998;2023-04-24T00:03:02;54.95;42.71;68.12;;
49568;Laerm;35474;51.032;6.998;2023-04-24T00:05:29;45.71;42.22;58.41;;
49568;Laerm;35474;51.032;6.998;2023-04-24T00:07:56;54.25;41.06;79.38;;
49568;Laerm;35474;51.032;6.998;2023-04-24T00:10:22;52.45;40.71;65.91;;
49568;Laerm;35474;51.032;6.998;2023-04-24T00:12:49;44.46;42.53;50.33;;
49568;Laerm;35474;51.032;6.998;2023-04-24T00:15:15;50.70;41.88;64.12;;
49568;Laerm;35474;51.032;6.998;2023-04-24T00:17:42;46.10;42.03;67.27;;
49568;Laerm;35474;51.032;6.998;2023-04-24T00:20:09;54.35;43.19;69.26;;
49568;Laerm;35474;51.032;6.998;2023-04-24T00:22:36;53.58;42.22;78.24;;
49568;Laerm;35474;51.032;6.998;2023-04-24T00:25:03;54.88;42.59;80.96;;
49568;Laerm;35474;51.032;6.998;2023-04-24T00:27:29;69.07;41.38;93.74;;
49568;Laerm;35474;51.032;6.998;2023-04-24T00:29:56;57.43;43.09;83.54;;
49568;Laerm;35474;51.032;6.998;2023-04-24T00:32:23;47.56;42.47;73.22;;
49568;Laerm;35474;51.032;6.998;2023-04-24T00:34:49;57.15;42.59;81.48;;
49568;Laerm;35474;51.032;6.998;2023-04-24T00:37:16;47.53;42.59;59.75;;
49568;Laerm;35474;51.032;6.998;2023-04-24T00:39:42;55.91;41.75;81.08;;
49568;Laerm;35474;51.032;6.998;2023-04-24T00:42:09;49.02;42.47;74.22;;
49568;Laerm;35474;51.032;6.998;2023-04-24T00:44:36;57.14;42.82;79.38;;
49568;Laerm;35474;51.032;6.998;2023-04-24T00:47:02;75.08;41.46;103.46;;
49568;Laerm;35474;51.032;6.998;2023-04-24T00:49:29;66.66;41.14;85.99;;
49568;Laerm;35474;51.032;6.998;2023-04-24T00:51:56;69.16;42.03;91.89;;
49568;Laerm;35474;51.032;6.998;2023-04-24T00:54:25;70.85;42.90;90.78;;
49568;Laerm;35474;51.032;6.998;2023-04-24T00:56:52;67.93;42.22;90.35;;
49568;Laerm;35474;51.032;6.998;2023-04-24T00:59:18;72.50;42.93;91.39;;
49568;Laerm;35474;51.032;6.998;2023-04-24T01:01:45;71.22;41.89;97.65;;
49568;Laerm;35474;51.032;6.998;2023-04-24T01:04:12;71.53;42.65;95.25;;
49568;Laerm;35474;51.032;6.998;2023-04-24T01:06:39;74.75;42.13;96.50;;
49568;Laerm;35474;51.032;6.998;2023-04-24T01:09:07;68.37;41.46;89.96;;
49568;Laerm;35474;51.032;6.998;2023-04-24T01:11:37;67.23;42.03;89.14;;
49568;Laerm;35474;51.032;6.998;2023-04-24T01:14:04;59.25;40.71;80.89;;
49568;Laerm;35474;51.032;6.998;2023-04-24T01:16:30;66.31;40.98;94.84;;
49568;Laerm;35474;51.032;6.998;2023-04-24T01:18:57;61.00;39.46;84.66;;
49568;Laerm;35474;51.032;6.998;2023-04-24T01:21:25;73.07;40.98;94.47;;
49568;Laerm;35474;51.032;6.998;2023-04-24T01:23:54;72.61;42.71;94.17;;
49568;Laerm;35474;51.032;6.998;2023-04-24T01:26:22;69.64;41.96;91.83;;
49568;Laerm;35474;51.032;6.998;2023-04-24T01:28:49;75.35;43.09;99.55;;
49568;Laerm;35474;51.032;6.998;2023-04-24T01:31:16;81.63;42.53;101.06;;
49568;Laerm;35474;51.032;6.998;2023-04-24T01:33:42;72.87;43.19;94.36;;
49568;Laerm;35474;51.032;6.998;2023-04-24T01:36:10;79.16;43.44;98.86;;
49568;Laerm;35474;51.032;6.998;2023-04-24T01:38:37;78.95;43.14;98.27;;
49568;Laerm;35474;51.032;6.998;2023-04-24T01:41:04;73.90;42.03;97.03;;
49568;Laerm;35474;51.032;6.998;2023-04-24T01:43:30;71.43;42.41;92.75;;
49568;Laerm;35474;51.032;6.998;2023-04-24T01:45:57;71.25;42.88;97.73;;
49568;Laerm;35474;51.032;6.998;2023-04-24T01:48:24;58.57;41.61;82.55;;
49568;Laerm;35474;51.032;6.998;2023-04-24T01:50:51;71.44;41.96;94.54;;
49568;Laerm;35474;51.032;6.998;2023-04-24T01:53:17;71.87;41.53;92.24;;
49568;Laerm;35474;51.032;6.998;2023-04-24T01:55:44;70.01;42.59;92.51;;
49568;Laerm;35474;51.032;6.998;2023-04-24T01:58:10;57.10;42.16;74.88;;
49568;Laerm;35474;51.032;6.998;2023-04-24T02:00:37;64.89;41.75;87.91;;
49568;Laerm;35474;51.032;6.998;2023-04-24T02:03:03;61.96;41.53;86.94;;
49568;Laerm;35474;51.032;6.998;2023-04-24T02:05:30;64.00;42.65;85.93;;
49568;Laerm;35474;51.032;6.998;2023-04-24T02:07:56;72.91;41.96;94.55;;
49568;Laerm;35474;51.032;6.998;2023-04-24T02:10:23;69.05;42.82;95.07;;
49568;Laerm;35474;51.032;6.998;2023-04-24T02:12:51;73.28;42.53;97.95;;
49568;Laerm;35474;51.032;6.998;2023-04-24T02:15:17;71.90;42.29;97.01;;
49568;Laerm;35474;51.032;6.998;2023-04-24T02:17:44;73.97;42.16;93.02;;
49568;Laerm;35474;51.032;6.998;2023-04-24T02:20:10;82.56;43.90;102.18;;
49568;Laerm;35474;51.032;6.998;2023-04-24T02:22:37;75.82;42.65;99.50;;
49568;Laerm;35474;51.032;6.998;2023-04-24T02:25:04;73.63;43.00;95.81;;
49568;Laerm;35474;51.032;6.998;2023-04-24T02:27:31;78.07;43.72;98.03;;
49568;Laerm;35474;51.032;6.998;2023-04-24T02:29:58;75.78;43.94;97.57;;
49568;Laerm;35474;51.032;6.998;2023-04-24T02:32:24;62.66;42.71;88.55;;
49568;Laerm;35474;51.032;6.998;2023-04-24T02:34:51;76.36;43.63;97.68;;
49568;Laerm;35474;51.032;6.998;2023-04-24T02:37:17;71.34;43.81;97.12;;
49568;Laerm;35474;51.032;6.998;2023-04-24T02:39:43;62.65;43.14;88.86;;
49568;Laerm;35474;51.032;6.998;2023-04-24T02:42:10;71.94;43.09;97.03;;
49568;Laerm;35474;51.032;6.998;2023-04-24T02:44:36;75.93;44.43;95.65;;
49568;Laerm;35474;51.032;6.998;2023-04-24T02:47:03;67.51;43.29;87.31;;
49568;Laerm;35474;51.032;6.998;2023-04-24T02:49:29;62.89;43.24;86.29;;
49568;Laerm;35474;51.032;6.998;2023-04-24T02:51:56;60.21;43.77;74.24;;
49568;Laerm;35474;51.032;6.998;2023-04-24T02:54:22;62.70;44.87;79.14;;
49568;Laerm;35474;51.032;6.998;2023-04-24T02:56:49;62.34;44.47;84.77;;
49568;Laerm;35474;51.032;6.998;2023-04-24T02:59:16;62.83;43.49;82.37;;
49568;Laerm;35474;51.032;6.998;2023-04-24T03:01:42;65.84;44.94;87.50;;
49568;Laerm;35474;51.032;6.998;2023-04-24T03:04:09;71.70;45.23;94.38;;
49568;Laerm;35474;51.032;6.998;2023-04-24T03:06:37;61.29;44.87;79.61;;
49568;Laerm;35474;51.032;6.998;2023-04-24T03:09:03;66.14;44.51;89.57;;
49568;Laerm;35474;51.032;6.998;2023-04-24T03:11:29;70.07;45.42;93.70;;
49568;Laerm;35474;51.032;6.998;2023-04-24T03:13:56;72.25;45.36;92.62;;
49568;Laerm;35474;51.032;6.998;2023-04-24T03:16:22;70.32;45.33;93.35;;
49568;Laerm;35474;51.032;6.998;2023-04-24T03:18:49;81.22;44.97;103.41;;
49568;Laerm;35474;51.032;6.998;2023-04-24T03:21:15;77.97;44.34;97.98;;
49568;Laerm;35474;51.032;6.998;2023-04-24T03:23:42;73.94;45.48;96.49;;
49568;Laerm;35474;51.032;6.998;2023-04-24T03:26:08;78.60;45.42;100.96;;
49568;Laerm;35474;51.032;6.998;2023-04-24T03:28:34;64.46;45.72;87.96;;
49568;Laerm;35474;51.032;6.998;2023-04-24T03:31:02;63.31;48.94;77.15;;
49568;Laerm;35474;51.032;6.998;2023-04-24T03:33:29;66.65;48.55;87.66;;
49568;Laerm;35474;51.032;6.998;2023-04-24T03:35:56;70.48;48.66;92.17;;
49568;Laerm;35474;51.032;6.998;2023-04-24T03:38:22;68.87;48.00;94.49;;
49568;Laerm;35474;51.032;6.998;2023-04-24T03:40:48;65.62;46.38;88.19;;
49568;Laerm;35474;51.032;6.998;2023-04-24T03:43:15;67.63;48.26;88.91;;
49568;Laerm;35474;51.032;6.998;2023-04-24T03:45:42;70.13;50.98;95.48;;
49568;Laerm;35474;51.032;6.998;2023-04-24T03:48:08;69.71;47.14;92.45;;
49568;Laerm;35474;51.032;6.998;2023-04-24T03:50:35;64.23;46.95;82.56;;
49568;Laerm;35474;51.032;6.998;2023-04-24T03:53:01;63.49;48.70;73.34;;
49568;Laerm;35474;51.032;6.998;2023-04-24T03:55:27;63.18;48.52;85.86;;
49568;Laerm;35474;51.032;6.998;2023-04-24T03:57:54;71.59;47.72;96.16;;
49568;Laerm;35474;51.032;6.998;2023-04-24T04:00:20;64.36;49.63;75.62;;
49568;Laerm;35474;51.032;6.998;2023-04-24T04:02:47;66.12;47.57;94.88;;
49568;Laerm;35474;51.032;6.998;2023-04-24T04:05:14;65.43;46.84;89.25;;
49568;Laerm;35474;51.032;6.998;2023-04-24T04:07:40;63.96;49.30;82.89;;
49568;Laerm;35474;51.032;6.998;2023-04-24T04:10:07;63.68;51.40;76.01;;
49568;Laerm;35474;51.032;6.998;2023-04-24T04:12:33;72.30;46.97;92.82;;
49568;Laerm;35474;51.032;6.998;2023-04-24T04:15:00;66.17;46.82;88.09;;
49568;Laerm;35474;51.032;6.998;2023-04-24T04:17:26;70.91;46.82;99.15;;
49568;Laerm;35474;51.032;6.998;2023-04-24T04:19:53;69.10;48.84;92.07;;
49568;Laerm;35474;51.032;6.998;2023-04-24T04:22:19;63.62;46.69;83.46;;
49568;Laerm;35474;51.032;6.998;2023-04-24T04:24:45;66.12;47.88;89.24;;
49568;Laerm;35474;51.032;6.998;2023-04-24T04:27:12;71.24;47.40;93.98;;
49568;Laerm;35474;51.032;6.998;2023-04-24T04:29:39;67.55;47.81;91.07;;
49568;Laerm;35474;51.032;6.998;2023-04-24T04:32:07;66.18;47.91;82.17;;
49568;Laerm;35474;51.032;6.998;2023-04-24T04:34:33;71.36;49.69;97.08;;
49568;Laerm;35474;51.032;6.998;2023-04-24T04:37:00;70.00;49.24;95.00;;
49568;Laerm;35474;51.032;6.998;2023-04-24T04:39:27;65.53;50.27;89.42;;
49568;Laerm;35474;51.032;6.998;2023-04-24T04:41:56;68.42;48.57;90.22;;
49568;Laerm;35474;51.032;6.998;2023-04-24T04:44:22;68.00;47.86;91.22;;
49568;Laerm;35474;51.032;6.998;2023-04-24T04:46:49;65.38;51.38;81.67;;
49568;Laerm;35474;51.032;6.998;2023-04-24T04:49:16;65.72;49.95;82.97;;
49568;Laerm;35474;51.032;6.998;2023-04-24T04:51:43;65.57;51.14;80.28;;
49568;Laerm;35474;51.032;6.998;2023-04-24T04:54:09;66.11;49.67;81.31;;
49568;Laerm;35474;51.032;6.998;2023-04-24T04:56:35;68.02;57.95;89.10;;
49568;Laerm;35474;51.032;6.998;2023-04-24T04:59:02;71.82;49.65;98.26;;
49568;Laerm;35474;51.032;6.998;2023-04-24T05:01:28;64.49;47.77;84.96;;
49568;Laerm;35474;51.032;6.998;2023-04-24T05:03:55;66.11;54.46;79.90;;
49568;Laerm;35474;51.032;6.998;2023-04-24T05:06:22;65.67;49.67;88.60;;
49568;Laerm;35474;51.032;6.998;2023-04-24T05:08:50;66.99;47.81;91.47;;
49568;Laerm;35474;51.032;6.998;2023-04-24T05:11:17;66.56;50.73;88.84;;
49568;Laerm;35474;51.032;6.998;2023-04-24T05:13:43;66.43;46.10;88.95;;
49568;Laerm;35474;51.032;6.998;2023-04-24T05:16:10;66.03;47.28;78.57;;
49568;Laerm;35474;51.032;6.998;2023-04-24T05:18:38;67.16;50.15;89.30;;
49568;Laerm;35474;51.032;6.998;2023-04-24T05:21:05;68.21;48.58;87.84;;
49568;Laerm;35474;51.032;6.998;2023-04-24T05:23:32;67.40;49.56;81.85;;
49568;Laerm;35474;51.032;6.998;2023-04-24T05:25:59;65.63;49.88;83.87;;
49568;Laerm;35474;51.032;6.998;2023-04-24T05:28:25;64.82;52.04;79.86;;
49568;Laerm;35474;51.032;6.998;2023-04-24T05:30:55;64.21;50.73;78.79;;
49568;Laerm;35474;51.032;6.998;2023-04-24T05:33:22;66.54;54.96;80.73;;
49568;Laerm;35474;51.032;6.998;2023-04-24T05:35:48;67.15;50.21;84.92;;
49568;Laerm;35474;51.032;6.998;2023-04-24T05:38:15;64.41;50.91;76.50;;
49568;Laerm;35474;51.032;6.998;2023-04-24T05:40:44;68.57;59.07;88.94;;
49568;Laerm;35474;51.032;6.998;2023-04-24T05:43:10;76.39;53.22;101.66;;
49568;Laerm;35474;51.032;6.998;2023-04-24T05:45:37;69.70;55.11;90.17;;
49568;Laerm;35474;51.032;6.998;2023-04-24T05:48:04;69.30;56.52;89.76;;
49568;Laerm;35474;51.032;6.998;2023-04-24T05:50:31;70.53;55.29;92.68;;
49568;Laerm;35474;51.032;6.998;2023-04-24T05:53:00;66.77;53.96;86.63;;
49568;Laerm;35474;51.032;6.998;2023-04-24T05:55:28;68.56;54.20;92.10;;
49568;Laerm;35474;51.032;6.998;2023-04-24T05:57:54;67.67;53.66;88.06;;
49568;Laerm;35474;51.032;6.998;2023-04-24T06:00:21;67.22;54.78;92.54;;
49568;Laerm;35474;51.032;6.998;2023-04-24T06:02:48;69.23;55.18;92.92;;
49568;Laerm;35474;51.032;6.998;2023-04-24T06:05:15;65.57;56.32;80.40;;
49568;Laerm;35474;51.032;6.998;2023-04-24T06:07:42;74.63;56.27;96.77;;
49568;Laerm;35474;51.032;6.998;2023-04-24T06:10:09;70.40;58.68;87.94;;
49568;Laerm;35474;51.032;6.998;2023-04-24T06:12:36;64.58;55.26;82.19;;
49568;Laerm;35474;51.032;6.998;2023-04-24T06:15:03;68.29;48.83;87.78;;
49568;Laerm;35474;51.032;6.998;2023-04-24T06:17:30;66.69;56.28;83.37;;
49568;Laerm;35474;51.032;6.998;2023-04-24T06:20:00;66.00;53.13;78.87;;
49568;Laerm;35474;51.032;6.998;2023-04-24T06:22:26;74.92;52.67;95.63;;
49568;Laerm;35474;51.032;6.998;2023-04-24T06:24:53;73.72;53.49;97.07;;
49568;Laerm;35474;51.032;6.998;2023-04-24T06:27:19;70.61;56.69;89.73;;
49568;Laerm;35474;51.032;6.998;2023-04-24T06:32:34;64.94;49.60;78.53;;
49568;Laerm;35474;51.032;6.998;2023-04-24T06:35:01;70.50;58.77;92.04;;
49568;Laerm;35474;51.032;6.998;2023-04-24T06:37:29;71.84;52.99;97.72;;
49568;Laerm;35474;51.032;6.998;2023-04-24T06:39:56;69.71;50.57;89.97;;
49568;Laerm;35474;51.032;6.998;2023-04-24T06:42:25;72.26;57.99;92.62;;
49568;Laerm;35474;51.032;6.998;2023-04-24T06:44:53;70.06;56.14;92.49;;
49568;Laerm;35474;51.032;6.998;2023-04-24T06:47:19;67.92;54.93;87.99;;
49568;Laerm;35474;51.032;6.998;2023-04-24T06:49:46;70.64;54.91;93.61;;
49568;Laerm;35474;51.032;6.998;2023-04-24T06:52:12;78.62;56.23;99.00;;
49568;Laerm;35474;51.032;6.998;2023-04-24T06:54:41;75.30;51.97;98.09;;
49568;Laerm;35474;51.032;6.998;2023-04-24T06:57:08;71.86;54.66;93.85;;
49568;Laerm;35474;51.032;6.998;2023-04-24T06:59:35;80.82;59.00;106.16;;
49568;Laerm;35474;51.032;6.998;2023-04-24T07:02:01;80.19;57.39;104.18;;
49568;Laerm;35474;51.032;6.998;2023-04-24T07:04:29;70.98;55.58;90.17;;
49568;Laerm;35474;51.032;6.998;2023-04-24T07:06:56;74.63;58.21;98.83;;
49568;Laerm;35474;51.032;6.998;2023-04-24T07:09:25;76.08;59.58;100.11;;
49568;Laerm;35474;51.032;6.998;2023-04-24T07:11:52;77.03;54.91;101.15;;
49568;Laerm;35474;51.032;6.998;2023-04-24T07:14:20;81.60;59.98;103.76;;
49568;Laerm;35474;51.032;6.998;2023-04-24T07:16:46;76.69;56.29;95.69;;
49568;Laerm;35474;51.032;6.998;2023-04-24T07:19:13;74.20;55.37;94.86;;
49568;Laerm;35474;51.032;6.998;2023-04-24T07:21:41;73.10;60.75;90.72;;
49568;Laerm;35474;51.032;6.998;2023-04-24T07:24:07;74.25;51.01;97.21;;
49568;Laerm;35474;51.032;6.998;2023-04-24T07:26:38;72.82;56.84;92.75;;
49568;Laerm;35474;51.032;6.998;2023-04-24T07:29:05;69.46;51.53;86.10;;
49568;Laerm;35474;51.032;6.998;2023-04-24T07:31:32;69.80;58.09;81.98;;
49568;Laerm;35474;51.032;6.998;2023-04-24T07:33:59;71.95;59.77;90.35;;
49568;Laerm;35474;51.032;6.998;2023-04-24T07:36:25;67.86;53.20;85.93;;
49568;Laerm;35474;51.032;6.998;2023-04-24T07:38:53;72.07;56.38;92.55;;
49568;Laerm;35474;51.032;6.998;2023-04-24T07:41:20;74.95;52.90;94.57;;
49568;Laerm;35474;51.032;6.998;2023-04-24T07:43:50;73.89;53.77;96.24;;
49568;Laerm;35474;51.032;6.998;2023-04-24T07:46:17;82.89;57.77;102.63;;
49568;Laerm;35474;51.032;6.998;2023-04-24T07:48:43;80.10;59.18;100.86;;
49568;Laerm;35474;51.032;6.998;2023-04-24T07:51:10;78.09;54.44;97.71;;
49568;Laerm;35474;51.032;6.998;2023-04-24T07:53:38;82.83;58.41;106.84;;
49568;Laerm;35474;51.032;6.998;2023-04-24T07:56:05;73.31;53.98;90.29;;
49568;Laerm;35474;51.032;6.998;2023-04-24T07:58:31;78.59;55.90;99.31;;
49568;Laerm;35474;51.032;6.998;2023-04-24T08:00:58;82.12;54.86;101.36;;
49568;Laerm;35474;51.032;6.998;2023-04-24T08:03:24;76.92;60.61;97.57;;
49568;Laerm;35474;51.032;6.998;2023-04-24T08:05:51;82.58;60.70;103.51;;
49568;Laerm;35474;51.032;6.998;2023-04-24T08:08:20;73.98;54.60;92.21;;
49568;Laerm;35474;51.032;6.998;2023-04-24T08:10:48;78.93;58.95;99.31;;
49568;Laerm;35474;51.032;6.998;2023-04-24T08:13:14;78.21;56.73;101.13;;
49568;Laerm;35474;51.032;6.998;2023-04-24T08:15:41;74.74;57.48;98.09;;
49568;Laerm;35474;51.032;6.998;2023-04-24T08:18:07;77.25;60.95;95.83;;
49568;Laerm;35474;51.032;6.998;2023-04-24T08:20:34;79.34;57.40;99.44;;
49568;Laerm;35474;51.032;6.998;2023-04-24T08:23:01;73.05;55.12;91.30;;
49568;Laerm;35474;51.032;6.998;2023-04-24T08:25:27;79.06;61.99;99.61;;
49568;Laerm;35474;51.032;6.998;2023-04-24T08:27:54;74.65;58.48;94.61;;
49568;Laerm;35474;51.032;6.998;2023-04-24T08:30:20;81.13;56.41;101.73;;
49568;Laerm;35474;51.032;6.998;2023-04-24T08:32:47;76.66;59.59;95.69;;
49568;Laerm;35474;51.032;6.998;2023-04-24T08:35:14;80.14;65.80;102.45;;
49568;Laerm;35474;51.032;6.998;2023-04-24T08:37:40;72.32;61.45;90.97;;
49568;Laerm;35474;51.032;6.998;2023-04-24T08:40:13;77.36;55.04;98.67;;
49568;Laerm;35474;51.032;6.998;2023-04-24T08:42:44;78.95;59.97;100.14;;
49568;Laerm;35474;51.032;6.998;2023-04-24T08:45:12;83.00;57.73;105.36;;
49568;Laerm;35474;51.032;6.998;2023-04-24T08:47:40;79.39;56.33;99.99;;
49568;Laerm;35474;51.032;6.998;2023-04-24T08:50:08;78.62;59.47;98.34;;
49568;Laerm;35474;51.032;6.998;2023-04-24T08:52:37;82.56;60.80;104.74;;
49568;Laerm;35474;51.032;6.998;2023-04-24T08:55:05;82.29;61.61;105.29;;
49568;Laerm;35474;51.032;6.998;2023-04-24T08:57:32;83.60;60.13;103.00;;
49568;Laerm;35474;51.032;6.998;2023-04-24T08:59:59;85.45;56.34;105.71;;
49568;Laerm;35474;51.032;6.998;2023-04-24T09:02:26;75.01;55.65;93.79;;
49568;Laerm;35474;51.032;6.998;2023-04-24T09:04:55;78.82;58.22;100.12;;
49568;Laerm;35474;51.032;6.998;2023-04-24T09:07:24;84.68;56.98;103.96;;
49568;Laerm;35474;51.032;6.998;2023-04-24T09:09:52;80.26;60.76;99.20;;
49568;Laerm;35474;51.032;6.998;2023-04-24T09:12:22;83.77;58.71;102.90;;
49568;Laerm;35474;51.032;6.998;2023-04-24T09:14:50;80.34;58.80;101.82;;
49568;Laerm;35474;51.032;6.998;2023-04-24T09:17:17;86.02;56.30;104.78;;
49568;Laerm;35474;51.032;6.998;2023-04-24T09:19:44;82.27;52.88;101.61;;
49568;Laerm;35474;51.032;6.998;2023-04-24T09:22:10;85.31;56.60;102.56;;
49568;Laerm;35474;51.032;6.998;2023-04-24T09:24:38;84.55;53.11;104.00;;
49568;Laerm;35474;51.032;6.998;2023-04-24T09:27:04;82.86;54.06;103.12;;
49568;Laerm;35474;51.032;6.998;2023-04-24T09:29:31;73.32;58.54;92.64;;
49568;Laerm;35474;51.032;6.998;2023-04-24T09:31:59;79.50;56.44;102.56;;
49568;Laerm;35474;51.032;6.998;2023-04-24T09:34:27;80.12;58.41;97.05;;
49568;Laerm;35474;51.032;6.998;2023-04-24T09:36:53;86.09;57.70;107.89;;
49568;Laerm;35474;51.032;6.998;2023-04-24T09:39:20;79.16;57.15;99.40;;
49568;Laerm;35474;51.032;6.998;2023-04-24T09:44:18;81.54;61.10;101.28;;
49568;Laerm;35474;51.032;6.998;2023-04-24T09:46:54;85.40;57.38;105.14;;
49568;Laerm;35474;51.032;6.998;2023-04-24T09:49:30;81.62;60.00;100.20;;
49568;Laerm;35474;51.032;6.998;2023-04-24T09:52:09;76.02;59.59;97.04;;
49568;Laerm;35474;51.032;6.998;2023-04-24T09:54:37;75.65;55.54;95.27;;
49568;Laerm;35474;51.032;6.998;2023-04-24T09:57:04;74.94;57.19;97.99;;
49568;Laerm;35474;51.032;6.998;2023-04-24T09:59:31;76.57;56.34;95.15;;
49568;Laerm;35474;51.032;6.998;2023-04-24T10:01:59;75.72;55.57;94.57;;
49568;Laerm;35474;51.032;6.998;2023-04-24T10:04:27;81.71;54.71;104.22;;
49568;Laerm;35474;51.032;6.998;2023-04-24T10:06:56;78.35;55.94;100.73;;
49568;Laerm;35474;51.032;6.998;2023-04-24T10:09:24;70.71;53.78;89.97;;
49568;Laerm;35474;51.032;6.998;2023-04-24T10:11:53;76.91;56.82;97.03;;
49568;Laerm;35474;51.032;6.998;2023-04-24T10:14:24;74.71;54.40;98.11;;
49568;Laerm;35474;51.032;6.998;2023-04-24T10:16:54;76.37;55.18;99.86;;
49568;Laerm;35474;51.032;6.998;2023-04-24T10:19:21;70.72;54.49;89.42;;
49568;Laerm;35474;51.032;6.998;2023-04-24T10:21:49;70.35;56.61;84.28;;
49568;Laerm;35474;51.032;6.998;2023-04-24T10:24:17;75.87;55.04;103.93;;
49568;Laerm;35474;51.032;6.998;2023-04-24T10:26:46;77.36;50.35;95.84;;
49568;Laerm;35474;51.032;6.998;2023-04-24T10:29:17;78.84;53.48;99.41;;
49568;Laerm;35474;51.032;6.998;2023-04-24T10:31:44;73.64;51.48;91.76;;
49568;Laerm;35474;51.032;6.998;2023-04-24T10:34:15;72.12;59.96;90.57;;
49568;Laerm;35474;51.032;6.998;2023-04-24T10:36:50;74.33;53.10;98.06;;
49568;Laerm;35474;51.032;6.998;2023-04-24T10:39:18;76.45;52.94;100.62;;
49568;Laerm;35474;51.032;6.998;2023-04-24T10:41:53;74.68;58.06;92.88;;
49568;Laerm;35474;51.032;6.998;2023-04-24T10:44:22;79.65;61.13;98.11;;
49568;Laerm;35474;51.032;6.998;2023-04-24T10:46:53;77.64;57.50;98.38;;
49568;Laerm;35474;51.032;6.998;2023-04-24T10:49:28;73.13;52.10;98.49;;
49568;Laerm;35474;51.032;6.998;2023-04-24T10:52:01;74.47;55.40;94.82;;
49568;Laerm;35474;51.032;6.998;2023-04-24T10:54:45;77.75;59.11;100.70;;
49568;Laerm;35474;51.032;6.998;2023-04-24T10:57:25;82.56;52.90;102.03;;
49568;Laerm;35474;51.032;6.998;2023-04-24T11:05:16;85.53;52.41;104.65;;
49568;Laerm;35474;51.032;6.998;2023-04-24T11:08:12;83.84;60.18;105.98;;
49568;Laerm;35474;51.032;6.998;2023-04-24T11:10:46;75.54;52.86;98.55;;
49568;Laerm;35474;51.032;6.998;2023-04-24T11:13:17;81.51;55.09;101.87;;
49568;Laerm;35474;51.032;6.998;2023-04-24T11:16:14;79.31;52.87;101.83;;
49568;Laerm;35474;51.032;6.998;2023-04-24T11:18:44;80.67;56.91;101.85;;
49568;Laerm;35474;51.032;6.998;2023-04-24T11:21:17;85.21;53.57;107.63;;
49568;Laerm;35474;51.032;6.998;2023-04-24T11:23:47;82.93;53.47;102.36;;
49568;Laerm;35474;51.032;6.998;2023-04-24T11:26:19;82.34;54.39;101.24;;
49568;Laerm;35474;51.032;6.998;2023-04-24T11:28:47;77.96;51.92;96.44;;
49568;Laerm;35474;51.032;6.998;2023-04-24T11:31:40;74.43;52.85;97.05;;
49568;Laerm;35474;51.032;6.998;2023-04-24T11:34:09;79.28;60.57;98.12;;
49568;Laerm;35474;51.032;6.998;2023-04-24T11:36:36;80.30;56.78;97.79;;
49568;Laerm;35474;51.032;6.998;2023-04-24T11:39:03;71.88;59.43;94.56;;
49568;Laerm;35474;51.032;6.998;2023-04-24T11:41:31;68.76;59.47;92.38;;
49568;Laerm;35474;51.032;6.998;2023-04-24T11:43:58;73.21;53.21;91.87;;
49568;Laerm;35474;51.032;6.998;2023-04-24T11:46:28;76.33;57.49;96.55;;
49568;Laerm;35474;51.032;6.998;2023-04-24T11:48:59;75.48;57.05;95.28;;
49568;Laerm;35474;51.032;6.998;2023-04-24T11:51:27;83.09;57.74;103.48;;
49568;Laerm;35474;51.032;6.998;2023-04-24T11:54:13;79.84;55.58;101.76;;
49568;Laerm;35474;51.032;6.998;2023-04-24T11:56:44;77.28;57.60;99.32;;
49568;Laerm;35474;51.032;6.998;2023-04-24T11:59:12;77.56;59.21;99.09;;
49568;Laerm;35474;51.032;6.998;2023-04-24T12:01:43;69.49;54.95;87.59;;
49568;Laerm;35474;51.032;6.998;2023-04-24T12:04:10;74.20;54.16;92.62;;
49568;Laerm;35474;51.032;6.998;2023-04-24T12:06:37;80.05;59.47;98.89;;
49568;Laerm;35474;51.032;6.998;2023-04-24T12:09:07;75.74;56.77;92.26;;
49568;Laerm;35474;51.032;6.998;2023-04-24T12:11:53;81.11;60.86;104.29;;
49568;Laerm;35474;51.032;6.998;2023-04-24T12:14:24;82.58;64.76;102.40;;
49568;Laerm;35474;51.032;6.998;2023-04-24T12:16:51;77.96;57.48;97.94;;
49568;Laerm;35474;51.032;6.998;2023-04-24T12:19:22;79.60;60.15;98.21;;
49568;Laerm;35474;51.032;6.998;2023-04-24T12:22:03;76.23;57.32;95.13;;
49568;Laerm;35474;51.032;6.998;2023-04-24T12:24:31;83.34;56.14;104.80;;
49568;Laerm;35474;51.032;6.998;2023-04-24T12:26:58;79.98;51.83;101.03;;
49568;Laerm;35474;51.032;6.998;2023-04-24T12:29:24;79.25;57.76;99.86;;
49568;Laerm;35474;51.032;6.998;2023-04-24T12:31:51;78.20;58.30;98.31;;
49568;Laerm;35474;51.032;6.998;2023-04-24T12:34:22;79.99;52.71;102.23;;
49568;Laerm;35474;51.032;6.998;2023-04-24T12:36:49;76.45;50.34;96.34;;
49568;Laerm;35474;51.032;6.998;2023-04-24T12:39:18;79.40;56.17;100.06;;
49568;Laerm;35474;51.032;6.998;2023-04-24T12:41:59;80.99;54.25;102.68;;
49568;Laerm;35474;51.032;6.998;2023-04-24T12:44:32;79.79;55.11;103.43;;
49568;Laerm;35474;51.032;6.998;2023-04-24T12:47:01;73.49;54.71;91.63;;
49568;Laerm;35474;51.032;6.998;2023-04-24T12:49:30;81.68;58.87;102.16;;
49568;Laerm;35474;51.032;6.998;2023-04-24T12:51:56;85.05;59.48;104.89;;
49568;Laerm;35474;51.032;6.998;2023-04-24T12:54:23;84.39;53.47;105.47;;
49568;Laerm;35474;51.032;6.998;2023-04-24T12:56:49;85.13;55.50;105.35;;
49568;Laerm;35474;51.032;6.998;2023-04-24T12:59:16;76.78;55.77;95.47;;
49568;Laerm;35474;51.032;6.998;2023-04-24T13:01:42;74.43;53.69;92.52;;
49568;Laerm;35474;51.032;6.998;2023-04-24T13:04:09;79.01;56.29;99.71;;
49568;Laerm;35474;51.032;6.998;2023-04-24T13:06:36;85.69;56.14;102.08;;
49568;Laerm;35474;51.032;6.998;2023-04-24T13:09:02;85.95;52.84;104.61;;
49568;Laerm;35474;51.032;6.998;2023-04-24T13:11:29;83.47;54.74;103.87;;
49568;Laerm;35474;51.032;6.998;2023-04-24T13:13:56;84.10;58.92;101.63;;
49568;Laerm;35474;51.032;6.998;2023-04-24T13:16:22;83.40;55.29;104.25;;
49568;Laerm;35474;51.032;6.998;2023-04-24T13:18:49;82.84;56.74;100.07;;
49568;Laerm;35474;51.032;6.998;2023-04-24T13:21:16;82.22;53.03;100.83;;
49568;Laerm;35474;51.032;6.998;2023-04-24T13:23:43;88.82;60.74;107.42;;
49568;Laerm;35474;51.032;6.998;2023-04-24T13:26:09;80.20;57.37;99.46;;
49568;Laerm;35474;51.032;6.998;2023-04-24T13:28:36;83.89;58.78;102.95;;
49568;Laerm;35474;51.032;6.998;2023-04-24T13:31:04;84.00;57.20;103.06;;
49568;Laerm;35474;51.032;6.998;2023-04-24T13:33:31;82.93;59.30;104.55;;
49568;Laerm;35474;51.032;6.998;2023-04-24T13:35:57;87.31;56.75;107.40;;
49568;Laerm;35474;51.032;6.998;2023-04-24T13:38:24;82.05;52.99;101.97;;
49568;Laerm;35474;51.032;6.998;2023-04-24T13:40:50;76.51;57.20;99.35;;
49568;Laerm;35474;51.032;6.998;2023-04-24T13:43:17;77.82;55.80;99.52;;
49568;Laerm;35474;51.032;6.998;2023-04-24T13:45:43;77.68;61.96;99.34;;
49568;Laerm;35474;51.032;6.998;2023-04-24T13:48:10;76.77;49.74;99.09;;
49568;Laerm;35474;51.032;6.998;2023-04-24T13:50:36;81.97;56.62;101.40;;
49568;Laerm;35474;51.032;6.998;2023-04-24T13:53:03;75.56;56.49;95.62;;
49568;Laerm;35474;51.032;6.998;2023-04-24T13:55:29;79.39;53.73;98.41;;